sensor_id;sensor_type;location;lat;lon;timestamp;P1;durP1;ratioP1;P2;durP2;ratioP2
3712;SDS011;1872;51.406;6.856;2022-10-16T00:01:09;7.57;;;5.60;;
3712;SDS011;1872;51.406;6.856;2022-10-16T00:03:37;5.73;;;4.90;;
3712;SDS011;1872;51.406;6.856;2022-10-16T00:06:07;6.30;;;5.00;;
3712;SDS011;1872;51.406;6.856;2022-10-16T00:08:34;5.30;;;4.80;;
3712;SDS011;1872;51.406;6.856;2022-10-16T00:11:05;7.30;;;5.13;;
3712;SDS011;1872;51.406;6.856;2022-10-16T00:13:33;13.53;;;6.60;;
3712;SDS011;1872;51.406;6.856;2022-10-16T00:16:00;7.60;;;5.57;;
3712;SDS011;1872;51.406;6.856;2022-10-16T00:18:26;6.23;;;5.20;;
3712;SDS011;1872;51.406;6.856;2022-10-16T00:20:53;6.30;;;5.20;;
3712;SDS011;1872;51.406;6.856;2022-10-16T00:23:19;6.60;;;5.50;;
3712;SDS011;1872;51.406;6.856;2022-10-16T00:25:45;7.70;;;4.93;;
3712;SDS011;1872;51.406;6.856;2022-10-16T00:28:20;5.13;;;4.63;;
3712;SDS011;1872;51.406;6.856;2022-10-16T00:30:46;6.80;;;4.83;;
3712;SDS011;1872;51.406;6.856;2022-10-16T00:33:11;7.10;;;4.73;;
3712;SDS011;1872;51.406;6.856;2022-10-16T00:35:37;4.93;;;4.53;;
3712;SDS011;1872;51.406;6.856;2022-10-16T00:38:02;5.87;;;4.90;;
3712;SDS011;1872;51.406;6.856;2022-10-16T00:40:28;5.80;;;5.27;;
3712;SDS011;1872;51.406;6.856;2022-10-16T00:42:54;6.27;;;5.17;;
3712;SDS011;1872;51.406;6.856;2022-10-16T00:45:20;4.87;;;4.47;;
3712;SDS011;1872;51.406;6.856;2022-10-16T00:47:46;6.60;;;5.03;;
3712;SDS011;1872;51.406;6.856;2022-10-16T00:50:30;7.07;;;4.53;;
3712;SDS011;1872;51.406;6.856;2022-10-16T00:52:58;4.93;;;4.53;;
3712;SDS011;1872;51.406;6.856;2022-10-16T00:55:25;6.03;;;4.83;;
3712;SDS011;1872;51.406;6.856;2022-10-16T00:57:53;4.97;;;4.57;;
3712;SDS011;1872;51.406;6.856;2022-10-16T01:00:23;7.40;;;5.30;;
3712;SDS011;1872;51.406;6.856;2022-10-16T01:05:21;5.13;;;4.63;;
3712;SDS011;1872;51.406;6.856;2022-10-16T01:10:50;5.20;;;4.70;;
3712;SDS011;1872;51.406;6.856;2022-10-16T01:13:24;6.10;;;4.30;;
3712;SDS011;1872;51.406;6.856;2022-10-16T01:15:55;4.03;;;3.40;;
3712;SDS011;1872;51.406;6.856;2022-10-16T01:18:32;5.27;;;3.90;;
3712;SDS011;1872;51.406;6.856;2022-10-16T01:21:04;6.37;;;4.43;;
3712;SDS011;1872;51.406;6.856;2022-10-16T01:29:21;4.67;;;4.00;;
3712;SDS011;1872;51.406;6.856;2022-10-16T01:31:50;4.97;;;3.80;;
3712;SDS011;1872;51.406;6.856;2022-10-16T01:34:38;5.20;;;3.73;;
3712;SDS011;1872;51.406;6.856;2022-10-16T01:37:12;4.57;;;4.17;;
3712;SDS011;1872;51.406;6.856;2022-10-16T01:39:42;3.77;;;3.37;;
3712;SDS011;1872;51.406;6.856;2022-10-16T01:42:16;4.50;;;4.20;;
3712;SDS011;1872;51.406;6.856;2022-10-16T01:44:46;5.70;;;4.20;;
3712;SDS011;1872;51.406;6.856;2022-10-16T01:47:13;5.70;;;4.03;;
3712;SDS011;1872;51.406;6.856;2022-10-16T01:49:42;5.57;;;4.33;;
3712;SDS011;1872;51.406;6.856;2022-10-16T01:52:11;7.47;;;5.20;;
3712;SDS011;1872;51.406;6.856;2022-10-16T01:54:42;5.30;;;3.80;;
3712;SDS011;1872;51.406;6.856;2022-10-16T01:57:10;5.17;;;3.97;;
3712;SDS011;1872;51.406;6.856;2022-10-16T01:59:41;6.60;;;4.77;;
3712;SDS011;1872;51.406;6.856;2022-10-16T02:02:10;4.57;;;4.13;;
3712;SDS011;1872;51.406;6.856;2022-10-16T02:04:38;4.90;;;3.70;;
3712;SDS011;1872;51.406;6.856;2022-10-16T02:07:07;4.70;;;3.97;;
3712;SDS011;1872;51.406;6.856;2022-10-16T02:09:33;3.80;;;3.40;;
3712;SDS011;1872;51.406;6.856;2022-10-16T02:12:01;6.60;;;3.27;;
3712;SDS011;1872;51.406;6.856;2022-10-16T02:14:33;4.30;;;3.40;;
3712;SDS011;1872;51.406;6.856;2022-10-16T02:16:58;2.70;;;2.50;;
3712;SDS011;1872;51.406;6.856;2022-10-16T02:19:24;3.70;;;3.30;;
3712;SDS011;1872;51.406;6.856;2022-10-16T02:22:14;4.00;;;3.60;;
3712;SDS011;1872;51.406;6.856;2022-10-16T02:27:17;4.70;;;3.50;;
3712;SDS011;1872;51.406;6.856;2022-10-16T02:29:53;3.33;;;3.03;;
3712;SDS011;1872;51.406;6.856;2022-10-16T02:32:27;3.50;;;3.20;;
3712;SDS011;1872;51.406;6.856;2022-10-16T02:34:56;3.10;;;2.80;;
3712;SDS011;1872;51.406;6.856;2022-10-16T02:37:23;5.23;;;3.50;;
3712;SDS011;1872;51.406;6.856;2022-10-16T02:39:50;3.30;;;3.00;;
3712;SDS011;1872;51.406;6.856;2022-10-16T02:42:17;4.10;;;3.80;;
3712;SDS011;1872;51.406;6.856;2022-10-16T02:44:43;5.10;;;3.70;;
3712;SDS011;1872;51.406;6.856;2022-10-16T02:47:09;5.33;;;4.67;;
3712;SDS011;1872;51.406;6.856;2022-10-16T02:49:35;3.90;;;3.50;;
3712;SDS011;1872;51.406;6.856;2022-10-16T02:52:00;3.60;;;3.30;;
3712;SDS011;1872;51.406;6.856;2022-10-16T02:54:26;4.07;;;3.77;;
3712;SDS011;1872;51.406;6.856;2022-10-16T02:56:52;4.40;;;3.37;;
3712;SDS011;1872;51.406;6.856;2022-10-16T02:59:17;3.90;;;3.60;;
3712;SDS011;1872;51.406;6.856;2022-10-16T03:01:43;3.23;;;2.73;;
3712;SDS011;1872;51.406;6.856;2022-10-16T03:04:08;3.17;;;2.80;;
3712;SDS011;1872;51.406;6.856;2022-10-16T03:06:34;3.97;;;2.83;;
3712;SDS011;1872;51.406;6.856;2022-10-16T03:09:00;2.90;;;2.70;;
3712;SDS011;1872;51.406;6.856;2022-10-16T03:11:26;2.93;;;2.73;;
3712;SDS011;1872;51.406;6.856;2022-10-16T03:13:53;3.43;;;3.13;;
3712;SDS011;1872;51.406;6.856;2022-10-16T03:16:18;3.03;;;2.83;;
3712;SDS011;1872;51.406;6.856;2022-10-16T03:18:47;4.73;;;2.77;;
3712;SDS011;1872;51.406;6.856;2022-10-16T03:21:14;3.50;;;3.20;;
3712;SDS011;1872;51.406;6.856;2022-10-16T03:23:40;3.07;;;2.87;;
3712;SDS011;1872;51.406;6.856;2022-10-16T03:26:06;3.30;;;3.00;;
3712;SDS011;1872;51.406;6.856;2022-10-16T03:28:31;3.70;;;3.40;;
3712;SDS011;1872;51.406;6.856;2022-10-16T03:30:57;3.00;;;2.80;;
3712;SDS011;1872;51.406;6.856;2022-10-16T03:33:23;3.70;;;3.10;;
3712;SDS011;1872;51.406;6.856;2022-10-16T03:35:52;3.00;;;2.80;;
3712;SDS011;1872;51.406;6.856;2022-10-16T03:38:19;4.83;;;3.60;;
3712;SDS011;1872;51.406;6.856;2022-10-16T03:40:45;3.13;;;2.83;;
3712;SDS011;1872;51.406;6.856;2022-10-16T03:43:11;2.93;;;2.73;;
3712;SDS011;1872;51.406;6.856;2022-10-16T03:45:36;3.30;;;3.00;;
3712;SDS011;1872;51.406;6.856;2022-10-16T03:48:02;4.93;;;2.80;;
3712;SDS011;1872;51.406;6.856;2022-10-16T03:50:28;2.47;;;2.37;;
3712;SDS011;1872;51.406;6.856;2022-10-16T03:52:54;4.53;;;3.00;;
3712;SDS011;1872;51.406;6.856;2022-10-16T03:55:20;2.90;;;2.70;;
3712;SDS011;1872;51.406;6.856;2022-10-16T03:57:45;2.60;;;2.40;;
3712;SDS011;1872;51.406;6.856;2022-10-16T04:00:11;5.73;;;2.77;;
3712;SDS011;1872;51.406;6.856;2022-10-16T04:02:37;7.23;;;3.20;;
3712;SDS011;1872;51.406;6.856;2022-10-16T04:05:03;3.97;;;3.60;;
3712;SDS011;1872;51.406;6.856;2022-10-16T04:07:29;4.50;;;3.43;;
3712;SDS011;1872;51.406;6.856;2022-10-16T04:09:55;3.60;;;3.30;;
3712;SDS011;1872;51.406;6.856;2022-10-16T04:12:22;3.80;;;3.50;;
3712;SDS011;1872;51.406;6.856;2022-10-16T04:14:47;3.40;;;3.10;;
3712;SDS011;1872;51.406;6.856;2022-10-16T04:17:13;3.03;;;2.83;;
3712;SDS011;1872;51.406;6.856;2022-10-16T04:19:38;3.83;;;3.30;;
3712;SDS011;1872;51.406;6.856;2022-10-16T04:22:04;3.77;;;3.47;;
3712;SDS011;1872;51.406;6.856;2022-10-16T04:24:30;3.23;;;2.77;;
3712;SDS011;1872;51.406;6.856;2022-10-16T04:26:55;3.67;;;3.37;;
3712;SDS011;1872;51.406;6.856;2022-10-16T04:29:21;3.23;;;2.93;;
3712;SDS011;1872;51.406;6.856;2022-10-16T04:31:47;4.00;;;3.10;;
3712;SDS011;1872;51.406;6.856;2022-10-16T04:34:12;3.10;;;2.90;;
3712;SDS011;1872;51.406;6.856;2022-10-16T04:36:38;7.33;;;3.00;;
3712;SDS011;1872;51.406;6.856;2022-10-16T04:39:04;3.30;;;3.07;;
3712;SDS011;1872;51.406;6.856;2022-10-16T04:41:29;3.07;;;2.70;;
3712;SDS011;1872;51.406;6.856;2022-10-16T04:43:55;3.57;;;3.27;;
3712;SDS011;1872;51.406;6.856;2022-10-16T04:46:20;3.43;;;3.10;;
3712;SDS011;1872;51.406;6.856;2022-10-16T04:48:47;3.00;;;2.80;;
3712;SDS011;1872;51.406;6.856;2022-10-16T04:51:13;3.47;;;3.17;;
3712;SDS011;1872;51.406;6.856;2022-10-16T04:53:38;3.93;;;3.50;;
3712;SDS011;1872;51.406;6.856;2022-10-16T04:56:04;4.70;;;3.23;;
3712;SDS011;1872;51.406;6.856;2022-10-16T04:58:30;3.83;;;3.43;;
3712;SDS011;1872;51.406;6.856;2022-10-16T05:00:56;4.17;;;3.53;;
3712;SDS011;1872;51.406;6.856;2022-10-16T05:03:21;3.47;;;3.17;;
3712;SDS011;1872;51.406;6.856;2022-10-16T05:05:47;3.17;;;2.87;;
3712;SDS011;1872;51.406;6.856;2022-10-16T05:08:13;3.23;;;2.93;;
3712;SDS011;1872;51.406;6.856;2022-10-16T05:10:43;4.73;;;2.90;;
3712;SDS011;1872;51.406;6.856;2022-10-16T05:13:10;6.20;;;3.03;;
3712;SDS011;1872;51.406;6.856;2022-10-16T05:15:36;2.70;;;2.50;;
3712;SDS011;1872;51.406;6.856;2022-10-16T05:18:02;3.27;;;3.00;;
3712;SDS011;1872;51.406;6.856;2022-10-16T05:20:28;3.17;;;2.87;;
3712;SDS011;1872;51.406;6.856;2022-10-16T05:22:53;2.93;;;2.73;;
3712;SDS011;1872;51.406;6.856;2022-10-16T05:25:19;3.10;;;2.90;;
3712;SDS011;1872;51.406;6.856;2022-10-16T05:27:48;4.20;;;3.10;;
3712;SDS011;1872;51.406;6.856;2022-10-16T05:30:14;3.13;;;2.93;;
3712;SDS011;1872;51.406;6.856;2022-10-16T05:32:40;2.90;;;2.70;;
3712;SDS011;1872;51.406;6.856;2022-10-16T05:35:06;4.03;;;3.03;;
3712;SDS011;1872;51.406;6.856;2022-10-16T05:37:32;4.83;;;2.53;;
3712;SDS011;1872;51.406;6.856;2022-10-16T05:39:58;5.30;;;3.57;;
3712;SDS011;1872;51.406;6.856;2022-10-16T05:42:23;3.43;;;3.13;;
3712;SDS011;1872;51.406;6.856;2022-10-16T05:44:49;4.10;;;3.33;;
3712;SDS011;1872;51.406;6.856;2022-10-16T05:47:14;3.60;;;3.30;;
3712;SDS011;1872;51.406;6.856;2022-10-16T05:49:40;6.43;;;3.50;;
3712;SDS011;1872;51.406;6.856;2022-10-16T05:52:06;6.70;;;3.60;;
3712;SDS011;1872;51.406;6.856;2022-10-16T05:54:31;3.07;;;2.80;;
3712;SDS011;1872;51.406;6.856;2022-10-16T05:56:57;4.63;;;3.27;;
3712;SDS011;1872;51.406;6.856;2022-10-16T05:59:22;3.27;;;3.00;;
3712;SDS011;1872;51.406;6.856;2022-10-16T06:01:48;3.07;;;2.80;;
3712;SDS011;1872;51.406;6.856;2022-10-16T06:04:14;3.20;;;2.90;;
3712;SDS011;1872;51.406;6.856;2022-10-16T06:06:39;3.40;;;3.10;;
3712;SDS011;1872;51.406;6.856;2022-10-16T06:09:05;3.23;;;2.90;;
3712;SDS011;1872;51.406;6.856;2022-10-16T06:11:31;3.30;;;3.10;;
3712;SDS011;1872;51.406;6.856;2022-10-16T06:13:58;3.13;;;2.90;;
3712;SDS011;1872;51.406;6.856;2022-10-16T06:16:27;3.40;;;3.10;;
3712;SDS011;1872;51.406;6.856;2022-10-16T06:18:53;3.63;;;3.13;;
3712;SDS011;1872;51.406;6.856;2022-10-16T06:21:21;2.47;;;2.27;;
3712;SDS011;1872;51.406;6.856;2022-10-16T06:23:52;3.53;;;2.60;;
3712;SDS011;1872;51.406;6.856;2022-10-16T06:26:20;3.90;;;3.60;;
3712;SDS011;1872;51.406;6.856;2022-10-16T06:28:47;4.77;;;3.80;;
3712;SDS011;1872;51.406;6.856;2022-10-16T06:31:14;5.60;;;3.90;;
3712;SDS011;1872;51.406;6.856;2022-10-16T06:33:40;5.33;;;3.77;;
3712;SDS011;1872;51.406;6.856;2022-10-16T06:36:07;4.03;;;3.53;;
3712;SDS011;1872;51.406;6.856;2022-10-16T06:38:37;3.43;;;3.13;;
3712;SDS011;1872;51.406;6.856;2022-10-16T06:41:04;3.60;;;3.30;;
3712;SDS011;1872;51.406;6.856;2022-10-16T06:43:31;3.37;;;3.07;;
3712;SDS011;1872;51.406;6.856;2022-10-16T06:45:58;5.53;;;3.53;;
3712;SDS011;1872;51.406;6.856;2022-10-16T06:48:24;2.93;;;2.73;;
3712;SDS011;1872;51.406;6.856;2022-10-16T06:53:23;3.00;;;2.80;;
3712;SDS011;1872;51.406;6.856;2022-10-16T06:55:49;2.90;;;2.70;;
3712;SDS011;1872;51.406;6.856;2022-10-16T06:58:15;3.40;;;3.10;;
3712;SDS011;1872;51.406;6.856;2022-10-16T07:00:41;3.43;;;3.13;;
3712;SDS011;1872;51.406;6.856;2022-10-16T07:03:07;3.30;;;2.97;;
3712;SDS011;1872;51.406;6.856;2022-10-16T07:05:39;3.30;;;3.00;;
3712;SDS011;1872;51.406;6.856;2022-10-16T07:08:08;4.20;;;3.23;;
3712;SDS011;1872;51.406;6.856;2022-10-16T07:10:34;3.00;;;2.77;;
3712;SDS011;1872;51.406;6.856;2022-10-16T07:13:00;3.40;;;3.10;;
3712;SDS011;1872;51.406;6.856;2022-10-16T07:15:26;3.50;;;3.20;;
3712;SDS011;1872;51.406;6.856;2022-10-16T07:17:52;4.87;;;3.63;;
3712;SDS011;1872;51.406;6.856;2022-10-16T07:20:18;3.63;;;3.33;;
3712;SDS011;1872;51.406;6.856;2022-10-16T07:22:44;3.70;;;3.40;;
3712;SDS011;1872;51.406;6.856;2022-10-16T07:25:10;3.20;;;2.90;;
3712;SDS011;1872;51.406;6.856;2022-10-16T07:27:36;3.13;;;2.93;;
3712;SDS011;1872;51.406;6.856;2022-10-16T07:30:02;5.73;;;3.60;;
3712;SDS011;1872;51.406;6.856;2022-10-16T07:32:29;3.60;;;3.30;;
3712;SDS011;1872;51.406;6.856;2022-10-16T07:34:55;3.73;;;2.80;;
3712;SDS011;1872;51.406;6.856;2022-10-16T07:37:21;3.70;;;3.40;;
3712;SDS011;1872;51.406;6.856;2022-10-16T07:39:47;4.40;;;3.50;;
3712;SDS011;1872;51.406;6.856;2022-10-16T07:42:13;3.50;;;3.20;;
3712;SDS011;1872;51.406;6.856;2022-10-16T07:44:38;3.33;;;2.80;;
3712;SDS011;1872;51.406;6.856;2022-10-16T07:47:05;3.20;;;2.90;;
3712;SDS011;1872;51.406;6.856;2022-10-16T07:49:30;7.93;;;3.40;;
3712;SDS011;1872;51.406;6.856;2022-10-16T07:51:56;4.93;;;4.17;;
3712;SDS011;1872;51.406;6.856;2022-10-16T07:54:22;6.30;;;3.20;;
3712;SDS011;1872;51.406;6.856;2022-10-16T07:56:48;3.33;;;3.13;;
3712;SDS011;1872;51.406;6.856;2022-10-16T07:59:13;4.60;;;3.23;;
3712;SDS011;1872;51.406;6.856;2022-10-16T08:01:39;3.70;;;3.30;;
3712;SDS011;1872;51.406;6.856;2022-10-16T08:04:07;3.30;;;2.90;;
3712;SDS011;1872;51.406;6.856;2022-10-16T08:06:38;4.80;;;3.53;;
3712;SDS011;1872;51.406;6.856;2022-10-16T08:09:05;4.57;;;3.60;;
3712;SDS011;1872;51.406;6.856;2022-10-16T08:11:32;3.60;;;3.30;;
3712;SDS011;1872;51.406;6.856;2022-10-16T08:13:58;3.20;;;3.00;;
3712;SDS011;1872;51.406;6.856;2022-10-16T08:16:24;3.20;;;3.00;;
3712;SDS011;1872;51.406;6.856;2022-10-16T08:18:49;4.00;;;2.90;;
3712;SDS011;1872;51.406;6.856;2022-10-16T08:21:20;3.47;;;2.80;;
3712;SDS011;1872;51.406;6.856;2022-10-16T08:23:58;2.93;;;2.73;;
3712;SDS011;1872;51.406;6.856;2022-10-16T08:26:26;2.70;;;2.50;;
3712;SDS011;1872;51.406;6.856;2022-10-16T08:28:52;5.37;;;4.87;;
3712;SDS011;1872;51.406;6.856;2022-10-16T08:31:18;2.80;;;2.60;;
3712;SDS011;1872;51.406;6.856;2022-10-16T08:33:44;3.27;;;2.97;;
3712;SDS011;1872;51.406;6.856;2022-10-16T08:36:14;4.13;;;2.93;;
3712;SDS011;1872;51.406;6.856;2022-10-16T08:38:41;4.77;;;2.67;;
3712;SDS011;1872;51.406;6.856;2022-10-16T08:46:29;2.33;;;2.13;;
3712;SDS011;1872;51.406;6.856;2022-10-16T08:49:00;5.80;;;2.33;;
3712;SDS011;1872;51.406;6.856;2022-10-16T08:51:29;2.50;;;2.30;;
3712;SDS011;1872;51.406;6.856;2022-10-16T08:54:15;3.30;;;2.33;;
3712;SDS011;1872;51.406;6.856;2022-10-16T08:56:51;2.10;;;2.00;;
3712;SDS011;1872;51.406;6.856;2022-10-16T08:59:21;2.27;;;2.17;;
3712;SDS011;1872;51.406;6.856;2022-10-16T09:01:47;2.33;;;1.80;;
3712;SDS011;1872;51.406;6.856;2022-10-16T09:06:58;2.17;;;2.07;;
3712;SDS011;1872;51.406;6.856;2022-10-16T09:17:52;2.60;;;2.30;;
3712;SDS011;1872;51.406;6.856;2022-10-16T09:25:30;1.83;;;1.73;;
3712;SDS011;1872;51.406;6.856;2022-10-16T09:27:57;2.43;;;2.23;;
3712;SDS011;1872;51.406;6.856;2022-10-16T09:30:22;1.90;;;1.80;;
3712;SDS011;1872;51.406;6.856;2022-10-16T09:32:54;2.20;;;2.10;;
3712;SDS011;1872;51.406;6.856;2022-10-16T09:35:24;2.73;;;2.20;;
3712;SDS011;1872;51.406;6.856;2022-10-16T09:37:57;2.50;;;1.93;;
3712;SDS011;1872;51.406;6.856;2022-10-16T09:40:26;2.93;;;2.00;;
3712;SDS011;1872;51.406;6.856;2022-10-16T09:43:00;2.37;;;1.80;;
3712;SDS011;1872;51.406;6.856;2022-10-16T09:45:38;4.50;;;2.57;;
3712;SDS011;1872;51.406;6.856;2022-10-16T09:48:11;2.63;;;2.03;;
3712;SDS011;1872;51.406;6.856;2022-10-16T09:50:38;2.63;;;1.90;;
3712;SDS011;1872;51.406;6.856;2022-10-16T09:53:13;2.13;;;2.03;;
3712;SDS011;1872;51.406;6.856;2022-10-16T09:55:49;2.00;;;1.90;;
3712;SDS011;1872;51.406;6.856;2022-10-16T09:58:15;2.27;;;2.00;;
3712;SDS011;1872;51.406;6.856;2022-10-16T10:00:41;2.17;;;1.97;;
3712;SDS011;1872;51.406;6.856;2022-10-16T10:03:19;2.00;;;1.90;;
3712;SDS011;1872;51.406;6.856;2022-10-16T10:11:50;1.50;;;1.40;;
3712;SDS011;1872;51.406;6.856;2022-10-16T10:16:46;1.60;;;1.50;;
3712;SDS011;1872;51.406;6.856;2022-10-16T10:19:17;2.90;;;1.63;;
3712;SDS011;1872;51.406;6.856;2022-10-16T10:21:44;2.17;;;2.00;;
3712;SDS011;1872;51.406;6.856;2022-10-16T10:24:11;2.20;;;2.00;;
3712;SDS011;1872;51.406;6.856;2022-10-16T10:26:38;1.90;;;1.73;;
3712;SDS011;1872;51.406;6.856;2022-10-16T10:29:09;2.00;;;1.87;;
3712;SDS011;1872;51.406;6.856;2022-10-16T10:34:45;1.70;;;1.60;;
3712;SDS011;1872;51.406;6.856;2022-10-16T10:37:32;1.77;;;1.67;;
3712;SDS011;1872;51.406;6.856;2022-10-16T10:42:59;3.20;;;1.80;;
3712;SDS011;1872;51.406;6.856;2022-10-16T10:48:17;2.00;;;1.90;;
3712;SDS011;1872;51.406;6.856;2022-10-16T10:51:03;4.60;;;2.57;;
3712;SDS011;1872;51.406;6.856;2022-10-16T10:53:47;2.00;;;1.77;;
3712;SDS011;1872;51.406;6.856;2022-10-16T10:56:22;4.03;;;2.23;;
3712;SDS011;1872;51.406;6.856;2022-10-16T11:01:55;1.60;;;1.50;;
3712;SDS011;1872;51.406;6.856;2022-10-16T11:04:42;2.80;;;2.60;;
3712;SDS011;1872;51.406;6.856;2022-10-16T11:07:27;1.83;;;1.43;;
3712;SDS011;1872;51.406;6.856;2022-10-16T11:09:59;1.50;;;1.40;;
3712;SDS011;1872;51.406;6.856;2022-10-16T11:12:49;1.53;;;1.47;;
3712;SDS011;1872;51.406;6.856;2022-10-16T11:15:29;2.83;;;1.57;;
3712;SDS011;1872;51.406;6.856;2022-10-16T11:20:53;1.57;;;1.47;;
3712;SDS011;1872;51.406;6.856;2022-10-16T11:23:40;2.00;;;1.90;;
3712;SDS011;1872;51.406;6.856;2022-10-16T11:26:19;4.83;;;1.67;;
3712;SDS011;1872;51.406;6.856;2022-10-16T11:28:54;2.17;;;1.50;;
3712;SDS011;1872;51.406;6.856;2022-10-16T11:36:50;1.50;;;1.40;;
3712;SDS011;1872;51.406;6.856;2022-10-16T11:39:35;1.60;;;1.50;;
3712;SDS011;1872;51.406;6.856;2022-10-16T11:42:10;1.30;;;1.20;;
3712;SDS011;1872;51.406;6.856;2022-10-16T11:44:48;2.73;;;1.33;;
3712;SDS011;1872;51.406;6.856;2022-10-16T11:47:33;1.63;;;1.53;;
3712;SDS011;1872;51.406;6.856;2022-10-16T11:53:04;2.60;;;2.33;;
3712;SDS011;1872;51.406;6.856;2022-10-16T11:55:41;1.53;;;1.43;;
3712;SDS011;1872;51.406;6.856;2022-10-16T11:58:12;1.50;;;1.37;;
3712;SDS011;1872;51.406;6.856;2022-10-16T12:00:50;1.90;;;1.67;;
3712;SDS011;1872;51.406;6.856;2022-10-16T12:03:26;1.90;;;1.80;;
3712;SDS011;1872;51.406;6.856;2022-10-16T12:08:57;2.07;;;1.33;;
3712;SDS011;1872;51.406;6.856;2022-10-16T12:16:37;1.57;;;1.20;;
3712;SDS011;1872;51.406;6.856;2022-10-16T12:19:28;1.53;;;1.40;;
3712;SDS011;1872;51.406;6.856;2022-10-16T12:21:56;2.67;;;1.70;;
3712;SDS011;1872;51.406;6.856;2022-10-16T12:27:20;1.63;;;1.53;;
3712;SDS011;1872;51.406;6.856;2022-10-16T12:30:01;1.90;;;1.80;;
3712;SDS011;1872;51.406;6.856;2022-10-16T12:34:59;1.60;;;1.60;;
3712;SDS011;1872;51.406;6.856;2022-10-16T12:37:28;2.50;;;1.70;;
3712;SDS011;1872;51.406;6.856;2022-10-16T12:39:58;1.40;;;1.30;;
3712;SDS011;1872;51.406;6.856;2022-10-16T12:44:54;2.93;;;1.63;;
3712;SDS011;1872;51.406;6.856;2022-10-16T12:47:21;1.37;;;1.23;;
3712;SDS011;1872;51.406;6.856;2022-10-16T12:49:56;2.53;;;1.70;;
3712;SDS011;1872;51.406;6.856;2022-10-16T12:52:27;2.10;;;1.40;;
3712;SDS011;1872;51.406;6.856;2022-10-16T12:54:59;2.67;;;1.60;;
3712;SDS011;1872;51.406;6.856;2022-10-16T13:05:44;1.50;;;1.40;;
3712;SDS011;1872;51.406;6.856;2022-10-16T13:08:42;1.67;;;1.53;;
3712;SDS011;1872;51.406;6.856;2022-10-16T13:11:20;4.10;;;1.70;;
3712;SDS011;1872;51.406;6.856;2022-10-16T13:14:27;2.50;;;1.40;;
3712;SDS011;1872;51.406;6.856;2022-10-16T13:19:48;2.33;;;1.57;;
3712;SDS011;1872;51.406;6.856;2022-10-16T13:28:34;2.40;;;2.20;;
3712;SDS011;1872;51.406;6.856;2022-10-16T13:31:02;1.77;;;1.67;;
3712;SDS011;1872;51.406;6.856;2022-10-16T13:33:36;2.80;;;1.70;;
3712;SDS011;1872;51.406;6.856;2022-10-16T13:36:04;1.50;;;1.40;;
3712;SDS011;1872;51.406;6.856;2022-10-16T13:38:32;1.60;;;1.50;;
3712;SDS011;1872;51.406;6.856;2022-10-16T13:41:00;2.30;;;1.80;;
3712;SDS011;1872;51.406;6.856;2022-10-16T13:43:29;1.70;;;1.60;;
3712;SDS011;1872;51.406;6.856;2022-10-16T13:46:01;1.30;;;1.20;;
3712;SDS011;1872;51.406;6.856;2022-10-16T13:48:32;2.50;;;1.80;;
3712;SDS011;1872;51.406;6.856;2022-10-16T13:51:03;1.63;;;1.50;;
3712;SDS011;1872;51.406;6.856;2022-10-16T13:53:43;1.90;;;1.80;;
3712;SDS011;1872;51.406;6.856;2022-10-16T13:56:11;2.30;;;1.77;;
3712;SDS011;1872;51.406;6.856;2022-10-16T13:58:41;1.70;;;1.60;;
3712;SDS011;1872;51.406;6.856;2022-10-16T14:01:17;1.63;;;1.53;;
3712;SDS011;1872;51.406;6.856;2022-10-16T14:03:44;2.20;;;1.37;;
3712;SDS011;1872;51.406;6.856;2022-10-16T14:06:11;1.70;;;1.60;;
3712;SDS011;1872;51.406;6.856;2022-10-16T14:08:55;2.37;;;1.50;;
3712;SDS011;1872;51.406;6.856;2022-10-16T14:11:24;1.50;;;1.40;;
3712;SDS011;1872;51.406;6.856;2022-10-16T14:13:51;1.50;;;1.20;;
3712;SDS011;1872;51.406;6.856;2022-10-16T14:16:29;1.97;;;1.50;;
3712;SDS011;1872;51.406;6.856;2022-10-16T14:19:03;2.10;;;1.50;;
3712;SDS011;1872;51.406;6.856;2022-10-16T14:21:32;1.57;;;1.47;;
3712;SDS011;1872;51.406;6.856;2022-10-16T14:23:58;1.53;;;1.20;;
3712;SDS011;1872;51.406;6.856;2022-10-16T14:26:28;3.57;;;2.70;;
3712;SDS011;1872;51.406;6.856;2022-10-16T14:29:17;2.30;;;2.10;;
3712;SDS011;1872;51.406;6.856;2022-10-16T14:31:54;2.50;;;2.30;;
3712;SDS011;1872;51.406;6.856;2022-10-16T14:34:29;2.03;;;1.77;;
3712;SDS011;1872;51.406;6.856;2022-10-16T14:37:00;1.30;;;1.20;;
3712;SDS011;1872;51.406;6.856;2022-10-16T14:39:32;1.40;;;1.30;;
3712;SDS011;1872;51.406;6.856;2022-10-16T14:41:58;1.73;;;1.40;;
3712;SDS011;1872;51.406;6.856;2022-10-16T14:44:27;2.00;;;1.80;;
3712;SDS011;1872;51.406;6.856;2022-10-16T14:46:56;3.37;;;1.40;;
3712;SDS011;1872;51.406;6.856;2022-10-16T14:49:22;1.47;;;1.37;;
3712;SDS011;1872;51.406;6.856;2022-10-16T14:51:50;3.00;;;1.97;;
3712;SDS011;1872;51.406;6.856;2022-10-16T14:54:17;1.60;;;1.50;;
3712;SDS011;1872;51.406;6.856;2022-10-16T14:56:51;2.10;;;1.50;;
3712;SDS011;1872;51.406;6.856;2022-10-16T15:02:01;1.73;;;1.60;;
3712;SDS011;1872;51.406;6.856;2022-10-16T15:04:47;2.13;;;1.80;;
3712;SDS011;1872;51.406;6.856;2022-10-16T15:07:13;2.20;;;1.43;;
3712;SDS011;1872;51.406;6.856;2022-10-16T15:09:39;1.70;;;1.60;;
3712;SDS011;1872;51.406;6.856;2022-10-16T15:12:05;1.70;;;1.60;;
3712;SDS011;1872;51.406;6.856;2022-10-16T15:14:31;3.67;;;1.70;;
3712;SDS011;1872;51.406;6.856;2022-10-16T15:16:56;2.40;;;1.87;;
3712;SDS011;1872;51.406;6.856;2022-10-16T15:19:22;3.40;;;2.93;;
3712;SDS011;1872;51.406;6.856;2022-10-16T15:21:48;2.30;;;2.10;;
3712;SDS011;1872;51.406;6.856;2022-10-16T15:24:14;3.00;;;1.90;;
3712;SDS011;1872;51.406;6.856;2022-10-16T15:26:40;2.20;;;1.80;;
3712;SDS011;1872;51.406;6.856;2022-10-16T15:29:06;3.77;;;1.47;;
3712;SDS011;1872;51.406;6.856;2022-10-16T15:31:32;3.83;;;1.70;;
3712;SDS011;1872;51.406;6.856;2022-10-16T15:33:57;2.70;;;1.90;;
3712;SDS011;1872;51.406;6.856;2022-10-16T15:36:28;2.40;;;1.70;;
3712;SDS011;1872;51.406;6.856;2022-10-16T15:39:01;2.27;;;1.77;;
3712;SDS011;1872;51.406;6.856;2022-10-16T15:41:41;2.50;;;1.87;;
3712;SDS011;1872;51.406;6.856;2022-10-16T15:44:07;10.73;;;7.43;;
3712;SDS011;1872;51.406;6.856;2022-10-16T15:46:33;8.77;;;6.20;;
3712;SDS011;1872;51.406;6.856;2022-10-16T15:48:59;6.57;;;4.00;;
3712;SDS011;1872;51.406;6.856;2022-10-16T15:51:26;3.63;;;3.30;;
3712;SDS011;1872;51.406;6.856;2022-10-16T15:53:57;3.93;;;2.20;;
3712;SDS011;1872;51.406;6.856;2022-10-16T15:56:24;2.57;;;2.07;;
3712;SDS011;1872;51.406;6.856;2022-10-16T15:58:51;3.90;;;1.93;;
3712;SDS011;1872;51.406;6.856;2022-10-16T16:01:18;3.17;;;2.13;;
3712;SDS011;1872;51.406;6.856;2022-10-16T16:03:44;6.13;;;2.23;;
3712;SDS011;1872;51.406;6.856;2022-10-16T16:06:11;1.97;;;1.77;;
3712;SDS011;1872;51.406;6.856;2022-10-16T16:08:41;2.90;;;2.43;;
3712;SDS011;1872;51.406;6.856;2022-10-16T16:11:08;3.83;;;3.27;;
3712;SDS011;1872;51.406;6.856;2022-10-16T16:13:38;6.20;;;5.60;;
3712;SDS011;1872;51.406;6.856;2022-10-16T16:16:08;8.80;;;8.00;;
3712;SDS011;1872;51.406;6.856;2022-10-16T16:18:35;8.50;;;5.90;;
3712;SDS011;1872;51.406;6.856;2022-10-16T16:21:01;7.13;;;6.33;;
3712;SDS011;1872;51.406;6.856;2022-10-16T16:23:27;7.60;;;6.90;;
3712;SDS011;1872;51.406;6.856;2022-10-16T16:28:52;5.90;;;4.87;;
3712;SDS011;1872;51.406;6.856;2022-10-16T16:31:19;4.20;;;3.70;;
3712;SDS011;1872;51.406;6.856;2022-10-16T16:33:46;5.33;;;4.83;;
3712;SDS011;1872;51.406;6.856;2022-10-16T16:36:11;5.50;;;5.00;;
3712;SDS011;1872;51.406;6.856;2022-10-16T16:38:37;6.80;;;5.60;;
3712;SDS011;1872;51.406;6.856;2022-10-16T16:43:39;7.50;;;5.00;;
3712;SDS011;1872;51.406;6.856;2022-10-16T16:46:05;6.53;;;5.87;;
3712;SDS011;1872;51.406;6.856;2022-10-16T16:48:31;7.93;;;7.10;;
3712;SDS011;1872;51.406;6.856;2022-10-16T16:51:02;21.43;;;19.00;;
3712;SDS011;1872;51.406;6.856;2022-10-16T16:53:28;12.97;;;10.90;;
3712;SDS011;1872;51.406;6.856;2022-10-16T16:55:55;9.93;;;8.67;;
3712;SDS011;1872;51.406;6.856;2022-10-16T16:58:25;9.50;;;7.20;;
3712;SDS011;1872;51.406;6.856;2022-10-16T17:00:51;11.67;;;9.30;;
3712;SDS011;1872;51.406;6.856;2022-10-16T17:03:17;11.80;;;9.60;;
3712;SDS011;1872;51.406;6.856;2022-10-16T17:05:43;18.83;;;10.20;;
3712;SDS011;1872;51.406;6.856;2022-10-16T17:08:08;11.53;;;9.73;;
3712;SDS011;1872;51.406;6.856;2022-10-16T17:10:41;12.30;;;10.03;;
3712;SDS011;1872;51.406;6.856;2022-10-16T17:13:07;9.77;;;8.77;;
3712;SDS011;1872;51.406;6.856;2022-10-16T17:15:33;8.50;;;7.43;;
3712;SDS011;1872;51.406;6.856;2022-10-16T17:17:59;10.90;;;9.83;;